Pagrindinis puslapis
METAR-TAF:

METAR-TAF

Oro uostai :

San Paulas-Congonhas, San Paulas, Brazilija

platuma: 23-37S, ilguma: 046-39W, Aukštis: 803 m

Dabartinis oras

Ataskaita buvo paskelbta 43 minutes, ne 17:00 UTC
Vėjas 12 kt iš Šiaurės Vakarų, svyruoja nuo Vakarų ir Šiaurės
Temperatūra 33°C
Drėgmė 23%
Slėgis 1011 hPa
Matomumas 10 km arba daugiau
nėra debesų žemiau 1500 m ir nėra kamuolinių lietaus debesų

METAR: SBSP 181700Z 31012KT 260V010 CAVOK 33/09 Q1011

Laikas: 14:43 (17:43 UTC)

Prognozė

Ataskaita buvo paskelbta 2 valandos ir 43 minutes, ne 15:00 UTC
Prognozė galioja nuo 18 metu 18 UTC su 19 metu 06 UTC
Vėjas 13 kt iš Šiaurės/Šiaurės Vakarų
Matomumas 10 km arba daugiau
nėra debesų žemiau 1500 m ir nėra kamuolinių lietaus debesų
Tapsmas
nuo 18 metu 20 UTC su 18 metu 22 UTC
Vėjas 10 kt iš Pietų/Pietryčių
Su prošvaistėmis ne aukštis 1500 ft
Tapsmas
nuo 18 metu 23 UTC su 19 metu 01 UTC
Su prošvaistėmis ne aukštis 900 ft

TAF: SBSP 181500Z 1818/1906 34013KT CAVOK TX34/1818Z TN18/1906Z BECMG 1820/1822 16010KT BKN015 BECMG 1823/1901 BKN009 RMK PGH

Orai ataskaitas ir orų prognozės (METAR, TAF).

turimą stotys yra geltonos ir raudonos taškus žemėlapyje.

Perkelti pele per norėdami pamatyti stoties vardą.

Tada spustelėkite, norėdami matyti oro stebėjimo ir prognozės.

Norėdami pakeisti žemėlapį: spustelėkite ant žalios mygtukų su juodo kryžiaus žemyn,; žalią mygtuką su brūkšneliu, jei norite nutolinti; arba žalių rodyklių gretimoms žemėlapius.


METAR-TAF: